sensor_id;sensor_type;location;lat;lon;timestamp;P1;durP1;ratioP1;P2;durP2;ratioP2
61915;SDS011;47868;51.326;6.550;2023-02-18T00:00:25;14.98;;;13.48;;
61915;SDS011;47868;51.326;6.550;2023-02-18T00:02:52;15.30;;;13.80;;
61915;SDS011;47868;51.326;6.550;2023-02-18T00:05:19;16.88;;;13.93;;
61915;SDS011;47868;51.326;6.550;2023-02-18T00:07:45;15.15;;;13.38;;
61915;SDS011;47868;51.326;6.550;2023-02-18T00:10:12;15.10;;;13.60;;
61915;SDS011;47868;51.326;6.550;2023-02-18T00:12:39;14.90;;;13.32;;
61915;SDS011;47868;51.326;6.550;2023-02-18T00:15:06;16.15;;;14.48;;
61915;SDS011;47868;51.326;6.550;2023-02-18T00:17:33;17.02;;;15.00;;
61915;SDS011;47868;51.326;6.550;2023-02-18T00:19:59;19.25;;;13.55;;
61915;SDS011;47868;51.326;6.550;2023-02-18T00:22:25;15.20;;;13.68;;
61915;SDS011;47868;51.326;6.550;2023-02-18T00:24:51;16.25;;;14.52;;
61915;SDS011;47868;51.326;6.550;2023-02-18T00:27:17;17.38;;;14.27;;
61915;SDS011;47868;51.326;6.550;2023-02-18T00:29:43;17.38;;;15.23;;
61915;SDS011;47868;51.326;6.550;2023-02-18T00:32:09;18.35;;;14.80;;
61915;SDS011;47868;51.326;6.550;2023-02-18T00:34:35;16.48;;;14.65;;
61915;SDS011;47868;51.326;6.550;2023-02-18T00:37:01;21.83;;;16.08;;
61915;SDS011;47868;51.326;6.550;2023-02-18T00:39:27;17.15;;;15.35;;
61915;SDS011;47868;51.326;6.550;2023-02-18T00:41:53;17.25;;;15.05;;
61915;SDS011;47868;51.326;6.550;2023-02-18T00:44:19;16.92;;;15.13;;
61915;SDS011;47868;51.326;6.550;2023-02-18T00:46:45;16.40;;;14.57;;
61915;SDS011;47868;51.326;6.550;2023-02-18T00:49:13;16.98;;;14.93;;
61915;SDS011;47868;51.326;6.550;2023-02-18T00:51:39;18.80;;;15.50;;
61915;SDS011;47868;51.326;6.550;2023-02-18T00:54:06;18.33;;;14.40;;
61915;SDS011;47868;51.326;6.550;2023-02-18T00:56:32;16.17;;;14.48;;
61915;SDS011;47868;51.326;6.550;2023-02-18T00:58:58;16.73;;;14.82;;
61915;SDS011;47868;51.326;6.550;2023-02-18T01:01:24;15.73;;;13.48;;
61915;SDS011;47868;51.326;6.550;2023-02-18T01:03:51;16.63;;;13.65;;
61915;SDS011;47868;51.326;6.550;2023-02-18T01:06:17;19.25;;;13.48;;
61915;SDS011;47868;51.326;6.550;2023-02-18T01:08:43;15.88;;;14.25;;
61915;SDS011;47868;51.326;6.550;2023-02-18T01:11:10;16.17;;;13.75;;
61915;SDS011;47868;51.326;6.550;2023-02-18T01:13:36;16.02;;;13.50;;
61915;SDS011;47868;51.326;6.550;2023-02-18T01:16:02;14.13;;;12.68;;
61915;SDS011;47868;51.326;6.550;2023-02-18T01:18:29;14.70;;;13.15;;
61915;SDS011;47868;51.326;6.550;2023-02-18T01:20:55;16.15;;;13.40;;
61915;SDS011;47868;51.326;6.550;2023-02-18T01:23:21;15.98;;;13.35;;
61915;SDS011;47868;51.326;6.550;2023-02-18T01:25:48;13.98;;;12.57;;
61915;SDS011;47868;51.326;6.550;2023-02-18T01:28:14;14.98;;;13.40;;
61915;SDS011;47868;51.326;6.550;2023-02-18T01:30:40;13.43;;;12.15;;
61915;SDS011;47868;51.326;6.550;2023-02-18T01:33:06;14.05;;;12.45;;
61915;SDS011;47868;51.326;6.550;2023-02-18T01:35:32;15.23;;;12.10;;
61915;SDS011;47868;51.326;6.550;2023-02-18T01:37:58;15.95;;;12.77;;
61915;SDS011;47868;51.326;6.550;2023-02-18T01:40:26;14.20;;;11.77;;
61915;SDS011;47868;51.326;6.550;2023-02-18T01:42:52;13.57;;;12.27;;
61915;SDS011;47868;51.326;6.550;2023-02-18T01:48:05;14.48;;;12.15;;
61915;SDS011;47868;51.326;6.550;2023-02-18T01:50:32;13.25;;;11.85;;
61915;SDS011;47868;51.326;6.550;2023-02-18T01:52:59;14.25;;;12.77;;
61915;SDS011;47868;51.326;6.550;2023-02-18T01:55:25;15.25;;;12.00;;
61915;SDS011;47868;51.326;6.550;2023-02-18T01:57:51;14.68;;;12.63;;
61915;SDS011;47868;51.326;6.550;2023-02-18T02:00:18;13.95;;;12.52;;
61915;SDS011;47868;51.326;6.550;2023-02-18T02:02:48;13.23;;;11.82;;
61915;SDS011;47868;51.326;6.550;2023-02-18T02:05:15;14.88;;;12.02;;
61915;SDS011;47868;51.326;6.550;2023-02-18T02:07:41;15.23;;;12.60;;
61915;SDS011;47868;51.326;6.550;2023-02-18T02:10:08;12.75;;;11.45;;
61915;SDS011;47868;51.326;6.550;2023-02-18T02:12:46;12.85;;;11.57;;
61915;SDS011;47868;51.326;6.550;2023-02-18T02:15:22;14.98;;;10.73;;
61915;SDS011;47868;51.326;6.550;2023-02-18T02:30:49;12.40;;;10.27;;
61915;SDS011;47868;51.326;6.550;2023-02-18T02:41:20;10.55;;;9.45;;
61915;SDS011;47868;51.326;6.550;2023-02-18T02:44:01;12.30;;;10.07;;
61915;SDS011;47868;51.326;6.550;2023-02-18T02:46:39;11.10;;;9.82;;
61915;SDS011;47868;51.326;6.550;2023-02-18T02:51:40;12.13;;;10.80;;
61915;SDS011;47868;51.326;6.550;2023-02-18T02:54:14;12.45;;;11.15;;
61915;SDS011;47868;51.326;6.550;2023-02-18T02:56:40;15.75;;;11.90;;
61915;SDS011;47868;51.326;6.550;2023-02-18T02:59:08;14.00;;;12.30;;
61915;SDS011;47868;51.326;6.550;2023-02-18T03:14:43;17.10;;;14.57;;
61915;SDS011;47868;51.326;6.550;2023-02-18T03:19:42;18.63;;;15.65;;
61915;SDS011;47868;51.326;6.550;2023-02-18T03:22:12;19.83;;;15.25;;
61915;SDS011;47868;51.326;6.550;2023-02-18T03:24:41;16.95;;;15.20;;
61915;SDS011;47868;51.326;6.550;2023-02-18T03:27:08;16.80;;;14.95;;
61915;SDS011;47868;51.326;6.550;2023-02-18T03:29:36;17.23;;;14.23;;
61915;SDS011;47868;51.326;6.550;2023-02-18T03:32:04;16.48;;;14.27;;
61915;SDS011;47868;51.326;6.550;2023-02-18T03:34:32;17.58;;;14.25;;
61915;SDS011;47868;51.326;6.550;2023-02-18T03:36:59;16.52;;;14.55;;
61915;SDS011;47868;51.326;6.550;2023-02-18T03:39:26;17.67;;;14.05;;
61915;SDS011;47868;51.326;6.550;2023-02-18T03:41:53;18.70;;;14.73;;
61915;SDS011;47868;51.326;6.550;2023-02-18T03:44:19;18.15;;;14.55;;
61915;SDS011;47868;51.326;6.550;2023-02-18T03:46:45;17.83;;;13.88;;
61915;SDS011;47868;51.326;6.550;2023-02-18T03:49:11;18.10;;;14.55;;
61915;SDS011;47868;51.326;6.550;2023-02-18T03:51:38;18.77;;;14.52;;
61915;SDS011;47868;51.326;6.550;2023-02-18T03:54:04;17.33;;;12.98;;
61915;SDS011;47868;51.326;6.550;2023-02-18T03:56:30;18.38;;;13.15;;
61915;SDS011;47868;51.326;6.550;2023-02-18T03:58:56;15.95;;;11.73;;
61915;SDS011;47868;51.326;6.550;2023-02-18T04:01:22;17.33;;;12.20;;
61915;SDS011;47868;51.326;6.550;2023-02-18T04:03:48;14.60;;;11.00;;
61915;SDS011;47868;51.326;6.550;2023-02-18T04:06:14;13.30;;;10.23;;
61915;SDS011;47868;51.326;6.550;2023-02-18T04:08:40;14.57;;;9.82;;
61915;SDS011;47868;51.326;6.550;2023-02-18T04:11:06;12.57;;;9.13;;
61915;SDS011;47868;51.326;6.550;2023-02-18T04:13:32;11.73;;;9.07;;
61915;SDS011;47868;51.326;6.550;2023-02-18T04:15:58;10.43;;;7.55;;
61915;SDS011;47868;51.326;6.550;2023-02-18T04:18:24;10.60;;;8.10;;
61915;SDS011;47868;51.326;6.550;2023-02-18T04:20:50;12.23;;;7.60;;
61915;SDS011;47868;51.326;6.550;2023-02-18T04:23:16;10.68;;;7.65;;
61915;SDS011;47868;51.326;6.550;2023-02-18T04:25:42;10.10;;;7.60;;
61915;SDS011;47868;51.326;6.550;2023-02-18T04:28:08;8.65;;;6.47;;
61915;SDS011;47868;51.326;6.550;2023-02-18T04:30:37;8.45;;;5.47;;
61915;SDS011;47868;51.326;6.550;2023-02-18T04:33:03;6.85;;;4.78;;
61915;SDS011;47868;51.326;6.550;2023-02-18T04:35:29;6.70;;;4.47;;
61915;SDS011;47868;51.326;6.550;2023-02-18T04:37:55;5.55;;;3.97;;
61915;SDS011;47868;51.326;6.550;2023-02-18T04:40:21;5.00;;;4.50;;
61915;SDS011;47868;51.326;6.550;2023-02-18T04:42:49;4.05;;;3.25;;
61915;SDS011;47868;51.326;6.550;2023-02-18T04:45:15;3.92;;;3.10;;
61915;SDS011;47868;51.326;6.550;2023-02-18T04:47:41;4.18;;;3.22;;
61915;SDS011;47868;51.326;6.550;2023-02-18T04:50:07;3.88;;;3.03;;
61915;SDS011;47868;51.326;6.550;2023-02-18T04:52:33;4.05;;;2.97;;
61915;SDS011;47868;51.326;6.550;2023-02-18T04:54:59;2.53;;;2.28;;
61915;SDS011;47868;51.326;6.550;2023-02-18T04:57:25;5.38;;;2.83;;
61915;SDS011;47868;51.326;6.550;2023-02-18T04:59:51;2.85;;;2.65;;
61915;SDS011;47868;51.326;6.550;2023-02-18T05:02:17;2.60;;;2.40;;
61915;SDS011;47868;51.326;6.550;2023-02-18T05:04:43;2.40;;;2.20;;
61915;SDS011;47868;51.326;6.550;2023-02-18T05:07:09;2.85;;;2.65;;
61915;SDS011;47868;51.326;6.550;2023-02-18T05:09:35;2.47;;;2.28;;
61915;SDS011;47868;51.326;6.550;2023-02-18T05:12:01;2.33;;;2.15;;
61915;SDS011;47868;51.326;6.550;2023-02-18T05:14:27;4.07;;;2.58;;
61915;SDS011;47868;51.326;6.550;2023-02-18T05:16:53;2.78;;;2.58;;
61915;SDS011;47868;51.326;6.550;2023-02-18T05:19:19;2.88;;;2.60;;
61915;SDS011;47868;51.326;6.550;2023-02-18T05:21:45;3.10;;;2.80;;
61915;SDS011;47868;51.326;6.550;2023-02-18T05:24:11;2.60;;;2.40;;
61915;SDS011;47868;51.326;6.550;2023-02-18T05:26:37;2.78;;;2.58;;
61915;SDS011;47868;51.326;6.550;2023-02-18T05:29:03;3.13;;;2.75;;
61915;SDS011;47868;51.326;6.550;2023-02-18T05:31:29;2.63;;;2.38;;
61915;SDS011;47868;51.326;6.550;2023-02-18T05:33:55;2.95;;;2.60;;
61915;SDS011;47868;51.326;6.550;2023-02-18T05:36:21;2.65;;;2.45;;
61915;SDS011;47868;51.326;6.550;2023-02-18T05:38:47;3.30;;;3.00;;
61915;SDS011;47868;51.326;6.550;2023-02-18T05:41:13;3.05;;;2.75;;
61915;SDS011;47868;51.326;6.550;2023-02-18T05:43:39;2.60;;;2.40;;
61915;SDS011;47868;51.326;6.550;2023-02-18T05:46:24;3.20;;;2.50;;
61915;SDS011;47868;51.326;6.550;2023-02-18T05:48:50;2.97;;;2.78;;
61915;SDS011;47868;51.326;6.550;2023-02-18T05:51:16;3.03;;;2.83;;
61915;SDS011;47868;51.326;6.550;2023-02-18T05:53:42;2.97;;;2.78;;
61915;SDS011;47868;51.326;6.550;2023-02-18T05:56:08;2.85;;;2.55;;
61915;SDS011;47868;51.326;6.550;2023-02-18T05:58:34;3.20;;;2.90;;
61915;SDS011;47868;51.326;6.550;2023-02-18T06:01:00;3.83;;;3.10;;
61915;SDS011;47868;51.326;6.550;2023-02-18T06:03:25;3.63;;;3.33;;
61915;SDS011;47868;51.326;6.550;2023-02-18T06:05:51;3.38;;;3.08;;
61915;SDS011;47868;51.326;6.550;2023-02-18T06:08:18;3.70;;;3.35;;
61915;SDS011;47868;51.326;6.550;2023-02-18T06:10:47;3.42;;;3.13;;
61915;SDS011;47868;51.326;6.550;2023-02-18T06:13:13;4.82;;;3.20;;
61915;SDS011;47868;51.326;6.550;2023-02-18T06:15:39;3.50;;;3.17;;
61915;SDS011;47868;51.326;6.550;2023-02-18T06:18:05;4.47;;;3.70;;
61915;SDS011;47868;51.326;6.550;2023-02-18T06:20:31;4.32;;;3.90;;
61915;SDS011;47868;51.326;6.550;2023-02-18T06:22:57;4.13;;;3.72;;
61915;SDS011;47868;51.326;6.550;2023-02-18T06:25:23;4.55;;;4.10;;
61915;SDS011;47868;51.326;6.550;2023-02-18T06:27:49;3.92;;;3.50;;
61915;SDS011;47868;51.326;6.550;2023-02-18T06:30:15;5.05;;;4.00;;
61915;SDS011;47868;51.326;6.550;2023-02-18T06:32:41;4.43;;;4.03;;
61915;SDS011;47868;51.326;6.550;2023-02-18T06:35:07;5.25;;;3.80;;
61915;SDS011;47868;51.326;6.550;2023-02-18T06:37:33;3.58;;;3.28;;
61915;SDS011;47868;51.326;6.550;2023-02-18T06:39:59;4.15;;;3.75;;
61915;SDS011;47868;51.326;6.550;2023-02-18T06:42:25;3.65;;;3.35;;
61915;SDS011;47868;51.326;6.550;2023-02-18T06:44:51;3.30;;;3.00;;
61915;SDS011;47868;51.326;6.550;2023-02-18T06:47:17;3.95;;;3.63;;
61915;SDS011;47868;51.326;6.550;2023-02-18T06:49:43;3.65;;;3.22;;
61915;SDS011;47868;51.326;6.550;2023-02-18T06:52:09;3.58;;;3.22;;
61915;SDS011;47868;51.326;6.550;2023-02-18T06:54:35;3.50;;;3.20;;
61915;SDS011;47868;51.326;6.550;2023-02-18T06:57:01;3.50;;;3.15;;
61915;SDS011;47868;51.326;6.550;2023-02-18T06:59:27;2.80;;;2.60;;
61915;SDS011;47868;51.326;6.550;2023-02-18T07:01:53;3.05;;;2.70;;
61915;SDS011;47868;51.326;6.550;2023-02-18T07:04:19;3.67;;;2.65;;
61915;SDS011;47868;51.326;6.550;2023-02-18T07:06:45;2.97;;;2.78;;
61915;SDS011;47868;51.326;6.550;2023-02-18T07:09:11;2.63;;;2.42;;
61915;SDS011;47868;51.326;6.550;2023-02-18T07:11:37;2.63;;;2.42;;
61915;SDS011;47868;51.326;6.550;2023-02-18T07:14:03;4.80;;;2.13;;
61915;SDS011;47868;51.326;6.550;2023-02-18T07:16:29;2.47;;;2.25;;
61915;SDS011;47868;51.326;6.550;2023-02-18T07:18:55;2.30;;;2.20;;
61915;SDS011;47868;51.326;6.550;2023-02-18T07:21:21;2.33;;;2.00;;
61915;SDS011;47868;51.326;6.550;2023-02-18T07:23:47;2.20;;;2.05;;
61915;SDS011;47868;51.326;6.550;2023-02-18T07:26:13;2.17;;;1.98;;
61915;SDS011;47868;51.326;6.550;2023-02-18T07:28:40;2.80;;;2.30;;
61915;SDS011;47868;51.326;6.550;2023-02-18T07:31:06;2.20;;;2.00;;
61915;SDS011;47868;51.326;6.550;2023-02-18T07:33:32;2.05;;;1.95;;
61915;SDS011;47868;51.326;6.550;2023-02-18T07:35:59;2.22;;;2.00;;
61915;SDS011;47868;51.326;6.550;2023-02-18T07:38:25;2.30;;;2.10;;
61915;SDS011;47868;51.326;6.550;2023-02-18T07:40:52;1.70;;;1.60;;
61915;SDS011;47868;51.326;6.550;2023-02-18T07:43:18;1.90;;;1.80;;
61915;SDS011;47868;51.326;6.550;2023-02-18T07:45:44;2.00;;;1.90;;
61915;SDS011;47868;51.326;6.550;2023-02-18T07:48:10;2.53;;;1.98;;
61915;SDS011;47868;51.326;6.550;2023-02-18T07:50:39;2.40;;;2.20;;
61915;SDS011;47868;51.326;6.550;2023-02-18T07:53:06;2.55;;;1.60;;
61915;SDS011;47868;51.326;6.550;2023-02-18T07:55:32;1.88;;;1.77;;
61915;SDS011;47868;51.326;6.550;2023-02-18T07:58:35;1.85;;;1.75;;
61915;SDS011;47868;51.326;6.550;2023-02-18T08:01:02;2.00;;;1.90;;
61915;SDS011;47868;51.326;6.550;2023-02-18T08:03:29;2.00;;;1.90;;
61915;SDS011;47868;51.326;6.550;2023-02-18T08:05:56;1.80;;;1.52;;
61915;SDS011;47868;51.326;6.550;2023-02-18T08:08:23;3.17;;;2.10;;
61915;SDS011;47868;51.326;6.550;2023-02-18T08:10:50;2.45;;;2.25;;
61915;SDS011;47868;51.326;6.550;2023-02-18T08:13:16;4.95;;;2.45;;
61915;SDS011;47868;51.326;6.550;2023-02-18T08:15:43;3.03;;;2.42;;
61915;SDS011;47868;51.326;6.550;2023-02-18T08:18:14;5.60;;;3.00;;
61915;SDS011;47868;51.326;6.550;2023-02-18T08:20:40;7.00;;;3.17;;
61915;SDS011;47868;51.326;6.550;2023-02-18T08:23:06;7.90;;;3.00;;
61915;SDS011;47868;51.326;6.550;2023-02-18T08:25:32;8.20;;;3.22;;
61915;SDS011;47868;51.326;6.550;2023-02-18T08:27:58;6.00;;;3.15;;
61915;SDS011;47868;51.326;6.550;2023-02-18T08:30:24;13.15;;;4.22;;
61915;SDS011;47868;51.326;6.550;2023-02-18T08:32:50;8.05;;;3.50;;
61915;SDS011;47868;51.326;6.550;2023-02-18T08:35:16;8.77;;;3.65;;
61915;SDS011;47868;51.326;6.550;2023-02-18T08:37:43;14.48;;;3.53;;
61915;SDS011;47868;51.326;6.550;2023-02-18T08:40:09;9.93;;;3.60;;
61915;SDS011;47868;51.326;6.550;2023-02-18T08:42:35;8.77;;;3.10;;
61915;SDS011;47868;51.326;6.550;2023-02-18T08:45:02;7.82;;;3.25;;
61915;SDS011;47868;51.326;6.550;2023-02-18T08:47:28;14.32;;;2.97;;
61915;SDS011;47868;51.326;6.550;2023-02-18T08:49:54;11.90;;;3.20;;
61915;SDS011;47868;51.326;6.550;2023-02-18T08:52:20;9.55;;;3.17;;
61915;SDS011;47868;51.326;6.550;2023-02-18T08:54:46;8.88;;;3.17;;
61915;SDS011;47868;51.326;6.550;2023-02-18T08:57:15;9.10;;;3.88;;
61915;SDS011;47868;51.326;6.550;2023-02-18T08:59:41;12.85;;;3.35;;
61915;SDS011;47868;51.326;6.550;2023-02-18T09:02:08;7.38;;;3.10;;
61915;SDS011;47868;51.326;6.550;2023-02-18T09:04:34;8.45;;;3.28;;
61915;SDS011;47868;51.326;6.550;2023-02-18T09:07:00;7.53;;;2.85;;
61915;SDS011;47868;51.326;6.550;2023-02-18T09:09:26;7.78;;;3.03;;
61915;SDS011;47868;51.326;6.550;2023-02-18T09:11:52;12.07;;;3.42;;
61915;SDS011;47868;51.326;6.550;2023-02-18T09:14:18;17.33;;;3.60;;
61915;SDS011;47868;51.326;6.550;2023-02-18T09:16:44;8.27;;;3.10;;
61915;SDS011;47868;51.326;6.550;2023-02-18T09:19:10;11.68;;;3.05;;
61915;SDS011;47868;51.326;6.550;2023-02-18T09:21:36;11.82;;;3.42;;
61915;SDS011;47868;51.326;6.550;2023-02-18T09:24:02;17.83;;;3.65;;
61915;SDS011;47868;51.326;6.550;2023-02-18T09:26:28;9.27;;;3.15;;
61915;SDS011;47868;51.326;6.550;2023-02-18T09:28:54;9.85;;;3.47;;
61915;SDS011;47868;51.326;6.550;2023-02-18T09:31:22;10.98;;;3.35;;
61915;SDS011;47868;51.326;6.550;2023-02-18T09:33:49;13.13;;;3.40;;
61915;SDS011;47868;51.326;6.550;2023-02-18T09:36:16;9.30;;;3.63;;
61915;SDS011;47868;51.326;6.550;2023-02-18T09:38:42;13.02;;;3.63;;
61915;SDS011;47868;51.326;6.550;2023-02-18T09:41:31;10.45;;;3.22;;
61915;SDS011;47868;51.326;6.550;2023-02-18T09:43:56;10.40;;;3.10;;
61915;SDS011;47868;51.326;6.550;2023-02-18T09:46:24;12.05;;;3.85;;
61915;SDS011;47868;51.326;6.550;2023-02-18T09:48:52;12.57;;;3.85;;
61915;SDS011;47868;51.326;6.550;2023-02-18T09:51:18;12.77;;;3.13;;
61915;SDS011;47868;51.326;6.550;2023-02-18T09:53:45;10.27;;;3.30;;
61915;SDS011;47868;51.326;6.550;2023-02-18T09:56:12;13.55;;;3.33;;
61915;SDS011;47868;51.326;6.550;2023-02-18T09:58:39;13.88;;;3.72;;
61915;SDS011;47868;51.326;6.550;2023-02-18T10:01:09;15.00;;;4.20;;
61915;SDS011;47868;51.326;6.550;2023-02-18T10:03:36;15.65;;;3.92;;
61915;SDS011;47868;51.326;6.550;2023-02-18T10:06:04;11.55;;;3.50;;
61915;SDS011;47868;51.326;6.550;2023-02-18T10:08:46;9.38;;;3.50;;
61915;SDS011;47868;51.326;6.550;2023-02-18T10:11:14;14.20;;;3.97;;
61915;SDS011;47868;51.326;6.550;2023-02-18T10:13:41;10.27;;;3.78;;
61915;SDS011;47868;51.326;6.550;2023-02-18T10:16:07;10.43;;;3.28;;
61915;SDS011;47868;51.326;6.550;2023-02-18T10:19:09;9.57;;;3.35;;
61915;SDS011;47868;51.326;6.550;2023-02-18T10:21:26;9.68;;;3.17;;
61915;SDS011;47868;51.326;6.550;2023-02-18T10:24:02;10.98;;;2.97;;
61915;SDS011;47868;51.326;6.550;2023-02-18T10:26:29;16.30;;;3.85;;
61915;SDS011;47868;51.326;6.550;2023-02-18T10:28:56;9.98;;;3.33;;
61915;SDS011;47868;51.326;6.550;2023-02-18T10:31:33;8.00;;;3.42;;
61915;SDS011;47868;51.326;6.550;2023-02-18T10:36:34;10.60;;;3.45;;
61915;SDS011;47868;51.326;6.550;2023-02-18T10:41:33;9.60;;;3.67;;
61915;SDS011;47868;51.326;6.550;2023-02-18T10:49:23;9.68;;;3.50;;
61915;SDS011;47868;51.326;6.550;2023-02-18T10:51:52;11.82;;;3.00;;
61915;SDS011;47868;51.326;6.550;2023-02-18T10:54:22;12.00;;;3.40;;
61915;SDS011;47868;51.326;6.550;2023-02-18T10:56:49;12.23;;;4.05;;
61915;SDS011;47868;51.326;6.550;2023-02-18T10:59:20;12.63;;;3.35;;
61915;SDS011;47868;51.326;6.550;2023-02-18T11:01:52;10.55;;;3.60;;
61915;SDS011;47868;51.326;6.550;2023-02-18T11:04:20;14.02;;;4.32;;
61915;SDS011;47868;51.326;6.550;2023-02-18T11:06:47;9.32;;;3.58;;
61915;SDS011;47868;51.326;6.550;2023-02-18T11:09:25;7.85;;;3.80;;
61915;SDS011;47868;51.326;6.550;2023-02-18T11:11:57;11.93;;;3.60;;
61915;SDS011;47868;51.326;6.550;2023-02-18T11:14:44;12.98;;;3.80;;
61915;SDS011;47868;51.326;6.550;2023-02-18T11:17:18;13.80;;;3.97;;
61915;SDS011;47868;51.326;6.550;2023-02-18T11:19:50;9.38;;;3.70;;
61915;SDS011;47868;51.326;6.550;2023-02-18T11:22:21;12.50;;;4.03;;
61915;SDS011;47868;51.326;6.550;2023-02-18T11:24:47;10.15;;;4.20;;
61915;SDS011;47868;51.326;6.550;2023-02-18T11:27:17;9.75;;;3.78;;
61915;SDS011;47868;51.326;6.550;2023-02-18T11:29:44;7.68;;;4.10;;
61915;SDS011;47868;51.326;6.550;2023-02-18T11:32:10;12.05;;;4.72;;
61915;SDS011;47868;51.326;6.550;2023-02-18T11:34:37;10.98;;;4.40;;
61915;SDS011;47868;51.326;6.550;2023-02-18T11:37:16;10.10;;;4.65;;
61915;SDS011;47868;51.326;6.550;2023-02-18T11:39:43;10.70;;;4.75;;
61915;SDS011;47868;51.326;6.550;2023-02-18T11:42:12;14.48;;;4.53;;
61915;SDS011;47868;51.326;6.550;2023-02-18T11:44:39;7.63;;;4.13;;
61915;SDS011;47868;51.326;6.550;2023-02-18T11:49:32;10.98;;;4.47;;
61915;SDS011;47868;51.326;6.550;2023-02-18T11:52:46;9.32;;;4.40;;
61915;SDS011;47868;51.326;6.550;2023-02-18T11:57:30;14.73;;;4.47;;
61915;SDS011;47868;51.326;6.550;2023-02-18T11:59:57;9.95;;;4.38;;
61915;SDS011;47868;51.326;6.550;2023-02-18T12:02:34;13.98;;;4.28;;
61915;SDS011;47868;51.326;6.550;2023-02-18T12:07:41;9.80;;;4.30;;
61915;SDS011;47868;51.326;6.550;2023-02-18T12:10:41;8.23;;;4.07;;
61915;SDS011;47868;51.326;6.550;2023-02-18T12:18:19;8.43;;;4.97;;
61915;SDS011;47868;51.326;6.550;2023-02-18T12:20:55;9.45;;;4.85;;
61915;SDS011;47868;51.326;6.550;2023-02-18T12:26:00;12.77;;;5.32;;
61915;SDS011;47868;51.326;6.550;2023-02-18T12:28:33;7.15;;;5.00;;
61915;SDS011;47868;51.326;6.550;2023-02-18T12:33:53;10.10;;;4.70;;
61915;SDS011;47868;51.326;6.550;2023-02-18T12:36:28;7.80;;;4.97;;
61915;SDS011;47868;51.326;6.550;2023-02-18T12:41:32;8.10;;;4.70;;
61915;SDS011;47868;51.326;6.550;2023-02-18T12:49:22;9.63;;;5.65;;
61915;SDS011;47868;51.326;6.550;2023-02-18T12:56:55;8.35;;;5.50;;
61915;SDS011;47868;51.326;6.550;2023-02-18T13:14:59;9.98;;;6.38;;
61915;SDS011;47868;51.326;6.550;2023-02-18T13:17:28;7.65;;;5.95;;
61915;SDS011;47868;51.326;6.550;2023-02-18T13:20:04;6.60;;;5.85;;
61915;SDS011;47868;51.326;6.550;2023-02-18T13:22:31;12.23;;;6.20;;
61915;SDS011;47868;51.326;6.550;2023-02-18T13:24:58;8.23;;;5.63;;
61915;SDS011;47868;51.326;6.550;2023-02-18T13:27:32;9.48;;;6.72;;
61915;SDS011;47868;51.326;6.550;2023-02-18T13:40:12;14.60;;;6.50;;
61915;SDS011;47868;51.326;6.550;2023-02-18T13:42:39;15.98;;;7.47;;
61915;SDS011;47868;51.326;6.550;2023-02-18T13:45:14;12.45;;;6.50;;
61915;SDS011;47868;51.326;6.550;2023-02-18T13:47:46;13.07;;;7.05;;
61915;SDS011;47868;51.326;6.550;2023-02-18T13:55:33;11.55;;;7.55;;
61915;SDS011;47868;51.326;6.550;2023-02-18T13:58:00;11.63;;;8.07;;
61915;SDS011;47868;51.326;6.550;2023-02-18T14:00:33;14.63;;;8.98;;
61915;SDS011;47868;51.326;6.550;2023-02-18T14:03:01;15.32;;;8.30;;
61915;SDS011;47868;51.326;6.550;2023-02-18T14:05:40;14.07;;;8.07;;
61915;SDS011;47868;51.326;6.550;2023-02-18T14:08:13;14.77;;;8.52;;
61915;SDS011;47868;51.326;6.550;2023-02-18T14:10:40;15.38;;;8.75;;
61915;SDS011;47868;51.326;6.550;2023-02-18T14:13:19;16.80;;;8.70;;
61915;SDS011;47868;51.326;6.550;2023-02-18T14:15:54;16.67;;;9.02;;
61915;SDS011;47868;51.326;6.550;2023-02-18T14:18:31;17.15;;;8.57;;
61915;SDS011;47868;51.326;6.550;2023-02-18T14:26:28;21.52;;;10.25;;
61915;SDS011;47868;51.326;6.550;2023-02-18T14:28:56;17.23;;;9.57;;
61915;SDS011;47868;51.326;6.550;2023-02-18T14:34:01;17.60;;;9.70;;
61915;SDS011;47868;51.326;6.550;2023-02-18T14:36:34;13.50;;;10.07;;
61915;SDS011;47868;51.326;6.550;2023-02-18T14:39:03;13.13;;;9.25;;
61915;SDS011;47868;51.326;6.550;2023-02-18T14:49:42;23.42;;;9.88;;
61915;SDS011;47868;51.326;6.550;2023-02-18T14:52:18;11.35;;;8.30;;
61915;SDS011;47868;51.326;6.550;2023-02-18T14:54:47;11.45;;;8.05;;
61915;SDS011;47868;51.326;6.550;2023-02-18T14:57:15;16.27;;;9.27;;
61915;SDS011;47868;51.326;6.550;2023-02-18T14:59:42;13.85;;;9.02;;
61915;SDS011;47868;51.326;6.550;2023-02-18T15:02:22;15.07;;;9.35;;
61915;SDS011;47868;51.326;6.550;2023-02-18T15:04:51;14.85;;;8.55;;
61915;SDS011;47868;51.326;6.550;2023-02-18T15:07:18;13.18;;;7.75;;
61915;SDS011;47868;51.326;6.550;2023-02-18T15:09:45;12.40;;;8.32;;
61915;SDS011;47868;51.326;6.550;2023-02-18T15:12:13;14.15;;;8.82;;
61915;SDS011;47868;51.326;6.550;2023-02-18T15:14:41;10.60;;;7.28;;
61915;SDS011;47868;51.326;6.550;2023-02-18T15:17:15;10.63;;;8.38;;
61915;SDS011;47868;51.326;6.550;2023-02-18T15:19:46;15.63;;;8.05;;
61915;SDS011;47868;51.326;6.550;2023-02-18T15:22:14;14.23;;;8.45;;
61915;SDS011;47868;51.326;6.550;2023-02-18T15:24:41;18.48;;;9.43;;
61915;SDS011;47868;51.326;6.550;2023-02-18T15:27:11;14.23;;;8.73;;
61915;SDS011;47868;51.326;6.550;2023-02-18T15:29:38;13.70;;;9.07;;
61915;SDS011;47868;51.326;6.550;2023-02-18T15:32:21;12.70;;;9.18;;
61915;SDS011;47868;51.326;6.550;2023-02-18T15:34:49;13.18;;;8.80;;
61915;SDS011;47868;51.326;6.550;2023-02-18T15:37:15;13.63;;;8.77;;
61915;SDS011;47868;51.326;6.550;2023-02-18T15:39:41;12.95;;;8.77;;
61915;SDS011;47868;51.326;6.550;2023-02-18T15:44:46;16.20;;;8.63;;
61915;SDS011;47868;51.326;6.550;2023-02-18T15:47:13;10.98;;;8.30;;
61915;SDS011;47868;51.326;6.550;2023-02-18T15:49:43;14.95;;;8.48;;
61915;SDS011;47868;51.326;6.550;2023-02-18T15:52:10;15.32;;;7.60;;
61915;SDS011;47868;51.326;6.550;2023-02-18T15:54:37;14.15;;;7.95;;
61915;SDS011;47868;51.326;6.550;2023-02-18T15:57:04;11.38;;;7.07;;
61915;SDS011;47868;51.326;6.550;2023-02-18T15:59:32;12.82;;;8.25;;
61915;SDS011;47868;51.326;6.550;2023-02-18T16:02:09;20.70;;;8.27;;
61915;SDS011;47868;51.326;6.550;2023-02-18T16:04:37;12.23;;;7.05;;
61915;SDS011;47868;51.326;6.550;2023-02-18T16:07:15;13.45;;;7.65;;
61915;SDS011;47868;51.326;6.550;2023-02-18T16:09:43;15.65;;;7.80;;
61915;SDS011;47868;51.326;6.550;2023-02-18T16:12:13;9.70;;;7.32;;
61915;SDS011;47868;51.326;6.550;2023-02-18T16:14:47;11.82;;;8.02;;
61915;SDS011;47868;51.326;6.550;2023-02-18T16:17:17;12.60;;;7.63;;
61915;SDS011;47868;51.326;6.550;2023-02-18T16:19:52;12.63;;;8.65;;
61915;SDS011;47868;51.326;6.550;2023-02-18T16:24:47;11.57;;;6.93;;
61915;SDS011;47868;51.326;6.550;2023-02-18T16:27:15;15.75;;;7.35;;
61915;SDS011;47868;51.326;6.550;2023-02-18T16:29:42;11.45;;;7.45;;
61915;SDS011;47868;51.326;6.550;2023-02-18T16:32:08;12.10;;;7.00;;
61915;SDS011;47868;51.326;6.550;2023-02-18T16:34:35;10.13;;;7.25;;
61915;SDS011;47868;51.326;6.550;2023-02-18T16:37:01;10.80;;;6.90;;
61915;SDS011;47868;51.326;6.550;2023-02-18T16:39:46;8.48;;;6.68;;
61915;SDS011;47868;51.326;6.550;2023-02-18T16:42:13;12.68;;;7.15;;
61915;SDS011;47868;51.326;6.550;2023-02-18T16:44:39;13.98;;;7.63;;
61915;SDS011;47868;51.326;6.550;2023-02-18T16:47:06;14.50;;;7.40;;
61915;SDS011;47868;51.326;6.550;2023-02-18T16:49:33;9.77;;;6.78;;
61915;SDS011;47868;51.326;6.550;2023-02-18T16:52:00;10.48;;;7.32;;
61915;SDS011;47868;51.326;6.550;2023-02-18T16:54:27;10.18;;;7.65;;
61915;SDS011;47868;51.326;6.550;2023-02-18T16:56:53;14.93;;;7.80;;